Observation data for Clarendon on 11/08/2019      Previous  Date       Current Mesonet Observations  Soil Data  Daily Summary Page  Observations in Plain Language
KCES 080600Z 36002KT 02/M01 A3046 RMK A01 T00181008  RH  083%=      5-min Rain = 0
KCES 080605Z 36002KT 02/M01 A3046 RMK A01 T00181010  RH  083%=      5-min Rain = 0
KCES 080610Z 02002KT 02/M01 A3046 RMK A01 T00181010  RH  082%=      5-min Rain = 0
KCES 080615Z 03002KT 02/M01 A3046 RMK A01 T00181014  RH  080%=      5-min Rain = 0
KCES 080620Z 03002KT 02/M02 A3046 RMK A01 T00181015  RH  080%=      5-min Rain = 0
KCES 080625Z 04001KT 02/M02 A3046 RMK A01 T00181018  RH  078%=      5-min Rain = 0
KCES 080630Z 04001KT 02/M02 A3046 RMK A01 T00181018  RH  078%=      5-min Rain = 0
KCES 080635Z 03001KT 02/M02 A3046 RMK A01 T00181018  RH  078%=      5-min Rain = 0
KCES 080640Z 03002KT 02/M02 A3045 RMK A01 T00181019  RH  078%=      5-min Rain = 0
KCES 080645Z 04002KT 02/M02 A3045 RMK A01 T00181021  RH  076%=      5-min Rain = 0
KCES 080650Z 03003KT 02/M02 A3045 RMK A01 T00191020  RH  076%=      5-min Rain = 0
KCES 080655Z 03003KT 02/M02 A3045 RMK A01 T00191020  RH  076%=      5-min Rain = 0
KCES 080700Z 05003KT 02/M02 A3045 RMK A01 T00191019  RH  076%=      5-min Rain = 0
KCES 080705Z 06003KT 02/M02 A3045 RMK A01 T00191021  RH  075%=      5-min Rain = 0
KCES 080710Z 05002KT 02/M02 A3045 RMK A01 T00201019  RH  076%=      5-min Rain = 0
KCES 080715Z 05002KT 02/M02 A3045 RMK A01 T00191019  RH  077%=      5-min Rain = 0
KCES 080720Z 05003KT 02/M02 A3044 RMK A01 T00191020  RH  076%=      5-min Rain = 0
KCES 080725Z 06003KT 02/M02 A3044 RMK A01 T00191023  RH  074%=      5-min Rain = 0
KCES 080730Z 07002KT 02/M02 A3044 RMK A01 T00191020  RH  076%=      5-min Rain = 0
KCES 080735Z 07002KT 02/M02 A3044 RMK A01 T00191021  RH  075%=      5-min Rain = 0
KCES 080740Z 08001KT 02/M02 A3044 RMK A01 T00191021  RH  076%=      5-min Rain = 0
KCES 080745Z 08001KT 02/M02 A3044 RMK A01 T00191023  RH  075%=      5-min Rain = 0
KCES 080750Z 08001KT 02/M02 A3044 RMK A01 T00191022  RH  075%=      5-min Rain = 0
KCES 080755Z 08001KT 02/M02 A3044 RMK A01 T00191022  RH  075%=      5-min Rain = 0
KCES 080800Z 07001KT 02/M02 A3043 RMK A01 T00181022  RH  075%=      5-min Rain = 0
KCES 080805Z 06001KT 02/M02 A3043 RMK A01 T00171022  RH  076%=      5-min Rain = 0
KCES 080810Z 06000KT 02/M02 A3043 RMK A01 T00161021  RH  077%=      5-min Rain = 0
KCES 080815Z 06001KT 02/M02 A3043 RMK A01 T00161023  RH  076%=      5-min Rain = 0
KCES 080820Z 09001KT 02/M02 A3043 RMK A01 T00161024  RH  075%=      5-min Rain = 0
KCES 080825Z 10002KT 02/M02 A3042 RMK A01 T00171020  RH  077%=      5-min Rain = 0
KCES 080830Z 10002KT 02/M02 A3043 RMK A01 T00171017  RH  079%=      5-min Rain = 0
KCES 080835Z 08002KT 02/M02 A3043 RMK A01 T00181015  RH  079%=      5-min Rain = 0
KCES 080840Z 09001KT 02/M02 A3043 RMK A01 T00181018  RH  078%=      5-min Rain = 0
KCES 080845Z 10001KT 02/M02 A3043 RMK A01 T00181019  RH  077%=      5-min Rain = 0
KCES 080850Z 07002KT 02/M02 A3042 RMK A01 T00191019  RH  077%=      5-min Rain = 0
KCES 080855Z 06003KT 02/M02 A3042 RMK A01 T00191017  RH  077%=      5-min Rain = 0
KCES 080900Z 05002KT 02/M02 A3042 RMK A01 T00191018  RH  077%=      5-min Rain = 0
KCES 080905Z 07002KT 02/M02 A3042 RMK A01 T00191022  RH  075%=      5-min Rain = 0
KCES 080910Z 09002KT 02/M02 A3042 RMK A01 T00191023  RH  074%=      5-min Rain = 0
KCES 080915Z 10003KT 02/M02 A3042 RMK A01 T00191024  RH  074%=      5-min Rain = 0
KCES 080920Z 10003KT 02/M02 A3042 RMK A01 T00191022  RH  075%=      5-min Rain = 0
KCES 080925Z 10002KT 02/M02 A3042 RMK A01 T00191021  RH  075%=      5-min Rain = 0
KCES 080930Z 11002KT 02/M02 A3042 RMK A01 T00191021  RH  075%=      5-min Rain = 0
KCES 080935Z 10002KT 02/M02 A3042 RMK A01 T00181024  RH  074%=      5-min Rain = 0
KCES 080940Z 10002KT 02/M03 A3042 RMK A01 T00181026  RH  073%=      5-min Rain = 0
KCES 080945Z 11003KT 02/M03 A3042 RMK A01 T00181028  RH  072%=      5-min Rain = 0
KCES 080950Z 12003KT 02/M03 A3042 RMK A01 T00181026  RH  073%=      5-min Rain = 0
KCES 080955Z 13002KT 02/M03 A3042 RMK A01 T00181025  RH  074%=      5-min Rain = 0
KCES 081000Z 14002KT 02/M02 A3042 RMK A01 T00181024  RH  074%=      5-min Rain = 0
KCES 081005Z 15002KT 02/M02 A3042 RMK A01 T00191023  RH  075%=      5-min Rain = 0
KCES 081010Z 15003KT 02/M02 A3042 RMK A01 T00191021  RH  076%=      5-min Rain = 0
KCES 081015Z 14003KT 02/M02 A3042 RMK A01 T00191020  RH  076%=      5-min Rain = 0
KCES 081020Z 14003KT 02/M02 A3041 RMK A01 T00191019  RH  077%=      5-min Rain = 0
KCES 081025Z 15003KT 02/M02 A3041 RMK A01 T00191018  RH  077%=      5-min Rain = 0
KCES 081030Z 15003KT 02/M02 A3041 RMK A01 T00191019  RH  077%=      5-min Rain = 0
KCES 081035Z 16003KT 02/M02 A3041 RMK A01 T00191018  RH  077%=      5-min Rain = 0
KCES 081040Z 16002KT 02/M02 A3041 RMK A01 T00191018  RH  077%=      5-min Rain = 0
KCES 081045Z 16002KT 02/M02 A3041 RMK A01 T00191017  RH  078%=      5-min Rain = 0
KCES 081050Z 16002KT 02/M02 A3041 RMK A01 T00181019  RH  077%=      5-min Rain = 0
KCES 081055Z 15002KT 02/M02 A3041 RMK A01 T00181020  RH  076%=      5-min Rain = 0
KCES 081100Z 17002KT 02/M02 A3041 RMK A01 T00191019  RH  077%=      5-min Rain = 0
KCES 081105Z 18003KT 02/M02 A3041 RMK A01 T00191019  RH  077%=      5-min Rain = 0
KCES 081110Z 18003KT 02/M02 A3041 RMK A01 T00191019  RH  076%=      5-min Rain = 0
KCES 081115Z 17004KT 02/M02 A3041 RMK A01 T00191019  RH  076%=      5-min Rain = 0
KCES 081120Z 18006KT 02/M02 A304 RMK A01 T00191020  RH  076%=      5-min Rain = 0
KCES 081125Z 17006KT 02/M02 A304 RMK A01 T00191020  RH  076%=      5-min Rain = 0
KCES 081130Z 18005KT 02/M02 A304 RMK A01 T00191016  RH  078%=      5-min Rain = 0
KCES 081135Z 18003KT 02/M01 A304 RMK A01 T00191014  RH  080%=      5-min Rain = 0
KCES 081140Z 18003KT 02/M02 A304 RMK A01 T00191015  RH  079%=      5-min Rain = 0
KCES 081145Z 18002KT 02/M01 A3041 RMK A01 T00191014  RH  080%=      5-min Rain = 0
KCES 081150Z 17004KT 02/M01 A304 RMK A01 T00191013  RH  080%=      5-min Rain = 0
KCES 081155Z 18005KT 02/M01 A304 RMK A01 T00191014  RH  079%=      5-min Rain = 0
KCES 081200Z 18005KT 02/M01 A3039 RMK A01 T00191014  RH  079%=      5-min Rain = 0
KCES 081205Z 17006KT 02/M01 A3039 RMK A01 T00191011  RH  081%=      5-min Rain = 0
KCES 081210Z 17005KT 02/M01 A304 RMK A01 T00191013  RH  080%=      5-min Rain = 0
KCES 081215Z 16004KT 02/M01 A304 RMK A01 T00191013  RH  080%=      5-min Rain = 0
KCES 081220Z 17004KT 02/M01 A304 RMK A01 T00191013  RH  080%=      5-min Rain = 0
KCES 081225Z 17004KT 02/M01 A3039 RMK A01 T00191013  RH  080%=      5-min Rain = 0
KCES 081230Z 17004KT 02/M02 A3039 RMK A01 T00181016  RH  078%=      5-min Rain = 0
KCES 081235Z 18004KT 02/M02 A304 RMK A01 T00181020  RH  076%=      5-min Rain = 0
KCES 081240Z 17002KT 02/M02 A304 RMK A01 T00181020  RH  077%=      5-min Rain = 0
KCES 081245Z 17003KT 02/M02 A304 RMK A01 T00181021  RH  076%=      5-min Rain = 0
KCES 081250Z 16003KT 02/M02 A304 RMK A01 T00181020  RH  076%=      5-min Rain = 0
KCES 081255Z 16003KT 02/M02 A304 RMK A01 T00191018  RH  077%=      5-min Rain = 0
KCES 081300Z 17003KT 02/M02 A304 RMK A01 T00191017  RH  078%=      5-min Rain = 0
KCES 081305Z 18003KT 02/M02 A304 RMK A01 T00191017  RH  078%=      5-min Rain = 0
KCES 081310Z 19004KT 02/M02 A304 RMK A01 T00191020  RH  076%=      5-min Rain = 0
KCES 081315Z 19004KT 02/M02 A304 RMK A01 T00191020  RH  076%=      5-min Rain = 0
KCES 081320Z 19004KT 02/M02 A304 RMK A01 T00191019  RH  076%=      5-min Rain = 0
KCES 081325Z 18004KT 02/M02 A304 RMK A01 T00201016  RH  078%=      5-min Rain = 0
KCES 081330Z 18003KT 02/M02 A304 RMK A01 T00191016  RH  078%=      5-min Rain = 0
KCES 081335Z 22002KT 02/M02 A3041 RMK A01 T00201017  RH  078%=      5-min Rain = 0
KCES 081340Z 27002KT 02/M02 A3042 RMK A01 T00191019  RH  076%=      5-min Rain = 0
KCES 081345Z 26001KT 02/M02 A3042 RMK A01 T00191021  RH  075%=      5-min Rain = 0
KCES 081350Z 24002KT 02/M02 A3042 RMK A01 T00201021  RH  075%=      5-min Rain = 0
KCES 081355Z 19002KT 02/M02 A3041 RMK A01 T00201021  RH  075%=      5-min Rain = 0
KCES 081400Z 18002KT 02/M02 A3041 RMK A01 T00201019  RH  076%=      5-min Rain = 0
KCES 081405Z 18003KT 02/M02 A3041 RMK A01 T00201021  RH  075%=      5-min Rain = 0
KCES 081410Z 18004KT 02/M02 A3041 RMK A01 T00201023  RH  074%=      5-min Rain = 0
KCES 081415Z 18005KT 02/M02 A3041 RMK A01 T00211022  RH  074%=      5-min Rain = 0
KCES 081420Z 19005KT 02/M02 A3041 RMK A01 T00221022  RH  073%=      5-min Rain = 0
KCES 081425Z 18006KT 02/M02 A3041 RMK A01 T00221021  RH  074%=      5-min Rain = 0
KCES 081430Z 18007KT 02/M02 A304 RMK A01 T00231021  RH  073%=      5-min Rain = 0
KCES 081435Z 18008KT 02/M02 A304 RMK A01 T00241019  RH  074%=      5-min Rain = 0
KCES 081440Z 18008KT 03/M02 A304 RMK A01 T00251018  RH  074%=      5-min Rain = 0
KCES 081445Z 18007KT 03/M02 A304 RMK A01 T00261016  RH  074%=      5-min Rain = 0
KCES 081450Z 18006KT 03/M02 A3041 RMK A01 T00271015  RH  075%=      5-min Rain = 0
KCES 081455Z 18007KT 03/M02 A3041 RMK A01 T00271017  RH  073%=      5-min Rain = 0
KCES 081500Z 19008KT 03/M02 A3041 RMK A01 T00291016  RH  073%=      5-min Rain = 0
KCES 081505Z 19007KT 03/M02 A3041 RMK A01 T00291018  RH  072%=      5-min Rain = 0
KCES 081510Z 20006KT 03/M02 A3041 RMK A01 T00301016  RH  072%=      5-min Rain = 0
KCES 081515Z 19008KT 03/M02 A3041 RMK A01 T00321017  RH  071%=      5-min Rain = 0
KCES 081520Z 18007KT 03/M02 A3041 RMK A01 T00321017  RH  071%=      5-min Rain = 0
KCES 081525Z 19007KT 03/M02 A3041 RMK A01 T00321020  RH  069%=      5-min Rain = 0
KCES 081530Z 18007KT 03/M02 A3041 RMK A01 T00321021  RH  069%=      5-min Rain = 0
KCES 081535Z 18007KT 03/M02 A3041 RMK A01 T00321022  RH  068%=      5-min Rain = 0
KCES 081540Z 18007KT 03/M02 A3041 RMK A01 T00331021  RH  068%=      5-min Rain = 0
KCES 081545Z 19008KT 03/M02 A304 RMK A01 T00331021  RH  068%=      5-min Rain = 0
KCES 081550Z 18008KT 04/M02 A304 RMK A01 T00351019  RH  069%=      5-min Rain = 0
KCES 081555Z 18008KT 04/M02 A304 RMK A01 T00361021  RH  067%=      5-min Rain = 0
KCES 081600Z 18008KT 04/M02 A304 RMK A01 T00361023  RH  066%=      5-min Rain = 0
KCES 081605Z 18007KT 04/M02 A304 RMK A01 T00381020  RH  067%=      5-min Rain = 0
KCES 081610Z 20008KT 04/M02 A304 RMK A01 T00391018  RH  067%=      5-min Rain = 0
KCES 081615Z 19008KT 04/M02 A3039 RMK A01 T00401016  RH  068%=      5-min Rain = 0
KCES 081620Z 18007KT 04/M02 A304 RMK A01 T00401016  RH  068%=      5-min Rain = 0
KCES 081625Z 19007KT 04/M01 A304 RMK A01 T00401014  RH  068%=      5-min Rain = 0
KCES 081630Z 21007KT 04/M02 A304 RMK A01 T00421015  RH  067%=      5-min Rain = 0
KCES 081635Z 21007KT 04/M02 A304 RMK A01 T00411016  RH  067%=      5-min Rain = 0
KCES 081640Z 20007KT 04/M01 A304 RMK A01 T00421014  RH  068%=      5-min Rain = 0
KCES 081645Z 21006KT 04/M01 A3039 RMK A01 T00421013  RH  068%=      5-min Rain = 0
KCES 081650Z 20006KT 04/M02 A3039 RMK A01 T00441015  RH  066%=      5-min Rain = 0
KCES 081655Z 20007KT 04/M01 A3039 RMK A01 T00431013  RH  067%=      5-min Rain = 0
KCES 081700Z 19006KT 04/M01 A3039 RMK A01 T00441012  RH  067%=      5-min Rain = 0
KCES 081705Z 18007KT 05/M01 A3039 RMK A01 T00471010  RH  067%=      5-min Rain = 0
KCES 081710Z 20007KT 05/M01 A3039 RMK A01 T00491010  RH  067%=      5-min Rain = 0
KCES 081715Z 19006KT 05/M01 A3039 RMK A01 T00501010  RH  066%=      5-min Rain = 0
KCES 081720Z 19007KT 05/M01 A3038 RMK A01 T00511009  RH  066%=      5-min Rain = 0
KCES 081725Z 19007KT 05/M01 A3038 RMK A01 T00511010  RH  065%=      5-min Rain = 0
KCES 081730Z 19007KT 05/M01 A3038 RMK A01 T00531009  RH  065%=      5-min Rain = 0
KCES 081735Z 19007KT 05/M01 A3037 RMK A01 T00541009  RH  065%=      5-min Rain = 0
KCES 081740Z 19006KT 06/M01 A3037 RMK A01 T00571005  RH  065%=      5-min Rain = 0
KCES 081745Z 20006KT 06/M01 A3037 RMK A01 T00581006  RH  064%=      5-min Rain = 0
KCES 081750Z 22006KT 06/M01 A3037 RMK A01 T00571005  RH  065%=      5-min Rain = 0
KCES 081755Z 22006KT 06/M00 A3037 RMK A01 T00581002  RH  066%=      5-min Rain = 0
KCES 081800Z 20006KT 06/M00 A3037 RMK A01 T00611002  RH  065%=      5-min Rain = 0
KCES 081805Z 23006KT 06/00 A3037 RMK A01 T00630001  RH  065%=      5-min Rain = 0
KCES 081810Z 18003KT 06/M00 A3037 RMK A01 T00641002  RH  064%=      5-min Rain = 0
KCES 081815Z 21005KT 07/00 A3036 RMK A01 T00660002  RH  064%=      5-min Rain = 0
KCES 081820Z 22005KT 07/01 A3036 RMK A01 T00680005  RH  065%=      5-min Rain = 0
KCES 081825Z 22007KT 07/01 A3035 RMK A01 T00710006  RH  064%=      5-min Rain = 0
KCES 081830Z 20007KT 07/01 A3035 RMK A01 T00700006  RH  064%=      5-min Rain = 0
KCES 081835Z 20008KT 07/01 A3034 RMK A01 T00720007  RH  064%=      5-min Rain = 0
KCES 081840Z 22008KT 07/01 A3034 RMK A01 T00730008  RH  064%=      5-min Rain = 0
KCES 081845Z 23006KT 07/01 A3034 RMK A01 T00740009  RH  064%=      5-min Rain = 0
KCES 081850Z 20007KT 08/01 A3034 RMK A01 T00750011  RH  065%=      5-min Rain = 0
KCES 081855Z 20006KT 08/01 A3033 RMK A01 T00770013  RH  065%=      5-min Rain = 0
KCES 081900Z 20008KT 08/01 A3033 RMK A01 T00780013  RH  064%=      5-min Rain = 0
KCES 081905Z 21008KT 08/02 A3032 RMK A01 T00800015  RH  065%=      5-min Rain = 0
KCES 081910Z 20006KT 08/02 A3032 RMK A01 T00800017  RH  065%=      5-min Rain = 0
KCES 081915Z 20008KT 08/02 A3032 RMK A01 T00820019  RH  065%=      5-min Rain = 0
KCES 081920Z 22008KT 08/02 A3031 RMK A01 T00840021  RH  066%=      5-min Rain = 0
KCES 081925Z 21008G13KT 09/02 A3031 RMK A01 T00870023  RH  065%=      5-min Rain = 0
KCES 081930Z 21009KT 09/02 A3031 RMK A01 T00870024  RH  065%=      5-min Rain = 0
KCES 081935Z 21009KT 09/02 A303 RMK A01 T00880024  RH  065%=      5-min Rain = 0
KCES 081940Z 21009KT 09/02 A303 RMK A01 T00880024  RH  065%=      5-min Rain = 0
KCES 081945Z 22009KT 09/03 A303 RMK A01 T00890026  RH  066%=      5-min Rain = 0
KCES 081950Z 22009KT 09/03 A303 RMK A01 T00890026  RH  066%=      5-min Rain = 0
KCES 081955Z 22009KT 09/03 A303 RMK A01 T00900027  RH  066%=      5-min Rain = 0
KCES 082000Z 21007KT 09/03 A303 RMK A01 T00920029  RH  066%=      5-min Rain = 0
KCES 082005Z 21009KT 10/03 A303 RMK A01 T00950031  RH  065%=      5-min Rain = 0
KCES 082010Z 22009KT 10/03 A3029 RMK A01 T00950032  RH  066%=      5-min Rain = 0
KCES 082015Z 21009KT 10/03 A3029 RMK A01 T00950032  RH  066%=      5-min Rain = 0
KCES 082020Z 21009KT 10/04 A3029 RMK A01 T00960035  RH  067%=      5-min Rain = 0
KCES 082025Z 20010G15KT 10/04 A3028 RMK A01 T00980035  RH  066%=      5-min Rain = 0
KCES 082030Z 20010KT 10/04 A3028 RMK A01 T00990036  RH  066%=      5-min Rain = 0
KCES 082035Z 21010G15KT 10/04 A3028 RMK A01 T01000037  RH  066%=      5-min Rain = 0
KCES 082040Z 20012KT 10/04 A3028 RMK A01 T00990038  RH  067%=      5-min Rain = 0
KCES 082045Z 21011KT 10/04 A3028 RMK A01 T01000040  RH  068%=      5-min Rain = 0
KCES 082050Z 20010G15KT 10/04 A3027 RMK A01 T01020040  RH  067%=      5-min Rain = 0
KCES 082055Z 20011KT 10/04 A3027 RMK A01 T01040040  RH  066%=      5-min Rain = 0
KCES 082100Z 20010KT 10/04 A3027 RMK A01 T01040040  RH  066%=      5-min Rain = 0
KCES 082105Z 21010KT 11/04 A3027 RMK A01 T01050043  RH  067%=      5-min Rain = 0
KCES 082110Z 20011G17KT 11/04 A3027 RMK A01 T01050043  RH  067%=      5-min Rain = 0
KCES 082115Z 20011KT 11/04 A3026 RMK A01 T01050043  RH  067%=      5-min Rain = 0
KCES 082120Z 20011KT 11/05 A3026 RMK A01 T01070046  RH  068%=      5-min Rain = 0
KCES 082125Z 21012KT 11/05 A3026 RMK A01 T01060045  RH  067%=      5-min Rain = 0
KCES 082130Z 21010G15KT 11/05 A3026 RMK A01 T01090048  RH  067%=      5-min Rain = 0
KCES 082135Z 21010G15KT 11/05 A3026 RMK A01 T01100047  RH  067%=      5-min Rain = 0
KCES 082140Z 21012KT 11/05 A3026 RMK A01 T01090048  RH  067%=      5-min Rain = 0
KCES 082145Z 20011KT 11/05 A3026 RMK A01 T01090048  RH  068%=      5-min Rain = 0
KCES 082150Z 20011KT 11/05 A3026 RMK A01 T01100049  RH  067%=      5-min Rain = 0
KCES 082155Z 20011KT 11/05 A3025 RMK A01 T01120050  RH  067%=      5-min Rain = 0
KCES 082200Z 22011KT 11/05 A3025 RMK A01 T01120049  RH  066%=      5-min Rain = 0
KCES 082205Z 21010KT 11/05 A3025 RMK A01 T01130051  RH  067%=      5-min Rain = 0
KCES 082210Z 21010G15KT 12/05 A3025 RMK A01 T01160053  RH  067%=      5-min Rain = 0
KCES 082215Z 22010G15KT 12/05 A3025 RMK A01 T01160054  RH  067%=      5-min Rain = 0
KCES 082220Z 21011G16KT 12/06 A3025 RMK A01 T01160056  RH  068%=      5-min Rain = 0
KCES 082225Z 20011G16KT 11/06 A3025 RMK A01 T01140056  RH  069%=      5-min Rain = 0
KCES 082230Z 21010KT 11/06 A3025 RMK A01 T01140056  RH  069%=      5-min Rain = 0
KCES 082235Z 21011KT 12/06 A3025 RMK A01 T01150056  RH  068%=      5-min Rain = 0
KCES 082240Z 23010KT 11/06 A3025 RMK A01 T01140055  RH  069%=      5-min Rain = 0
KCES 082245Z 22011KT 11/06 A3025 RMK A01 T01130055  RH  069%=      5-min Rain = 0
KCES 082250Z 21010KT 11/06 A3025 RMK A01 T01120055  RH  069%=      5-min Rain = 0
KCES 082255Z 23010KT 11/05 A3025 RMK A01 T01110053  RH  069%=      5-min Rain = 0
KCES 082300Z 22010KT 11/05 A3025 RMK A01 T01090053  RH  070%=      5-min Rain = 0
KCES 082305Z 22009KT 11/05 A3025 RMK A01 T01080053  RH  070%=      5-min Rain = 0
KCES 082310Z 22009KT 11/05 A3025 RMK A01 T01070053  RH  071%=      5-min Rain = 0
KCES 082315Z 22008KT 11/05 A3025 RMK A01 T01050052  RH  071%=      5-min Rain = 0
KCES 082320Z 21008KT 10/05 A3025 RMK A01 T01040052  RH  072%=      5-min Rain = 0
KCES 082325Z 21007KT 10/05 A3025 RMK A01 T01010051  RH  073%=      5-min Rain = 0
KCES 082330Z 21007KT 10/05 A3025 RMK A01 T00990050  RH  074%=      5-min Rain = 0
KCES 082335Z 21007KT 10/05 A3025 RMK A01 T00950049  RH  075%=      5-min Rain = 0
KCES 082340Z 21007KT 09/05 A3026 RMK A01 T00910048  RH  076%=      5-min Rain = 0
KCES 082345Z 21007KT 09/05 A3026 RMK A01 T00880047  RH  077%=      5-min Rain = 0
KCES 082350Z 21007KT 08/05 A3025 RMK A01 T00840045  RH  078%=      5-min Rain = 0
KCES 082355Z 21007KT 08/04 A3026 RMK A01 T00800043  RH  079%=      5-min Rain = 0
KCES 090000Z 21007KT 08/04 A3026 RMK A01 T00750041  RH  081%=      5-min Rain = 0
KCES 090005Z 21007KT 07/04 A3026 RMK A01 T00710040  RH  082%=      5-min Rain = 0
KCES 090010Z 20008KT 07/04 A3026 RMK A01 T00680038  RH  083%=      5-min Rain = 0
KCES 090015Z 21008KT 07/04 A3025 RMK A01 T00660038  RH  084%=      5-min Rain = 0
KCES 090020Z 21008KT 06/04 A3025 RMK A01 T00640038  RH  085%=      5-min Rain = 0
KCES 090025Z 21007KT 07/04 A3025 RMK A01 T00650039  RH  086%=      5-min Rain = 0
KCES 090030Z 21007KT 07/04 A3025 RMK A01 T00650040  RH  085%=      5-min Rain = 0
KCES 090035Z 21007KT 06/04 A3025 RMK A01 T00640039  RH  085%=      5-min Rain = 0
KCES 090040Z 21007KT 06/04 A3025 RMK A01 T00620038  RH  086%=      5-min Rain = 0
KCES 090045Z 21008KT 06/04 A3025 RMK A01 T00610038  RH  087%=      5-min Rain = 0
KCES 090050Z 21008KT 06/04 A3025 RMK A01 T00610038  RH  087%=      5-min Rain = 0
KCES 090055Z 21007KT 06/04 A3026 RMK A01 T00610038  RH  087%=      5-min Rain = 0
KCES 090100Z 21007KT 06/04 A3026 RMK A01 T00600038  RH  087%=      5-min Rain = 0
KCES 090105Z 22006KT 06/04 A3026 RMK A01 T00590038  RH  088%=      5-min Rain = 0
KCES 090110Z 22006KT 06/04 A3026 RMK A01 T00590038  RH  088%=      5-min Rain = 0
KCES 090115Z 22007KT 06/04 A3026 RMK A01 T00570037  RH  088%=      5-min Rain = 0
KCES 090120Z 22006KT 06/04 A3026 RMK A01 T00560036  RH  089%=      5-min Rain = 0
KCES 090125Z 22005KT 05/04 A3026 RMK A01 T00540035  RH  089%=      5-min Rain = 0
KCES 090130Z 23005KT 05/04 A3026 RMK A01 T00540035  RH  089%=      5-min Rain = 0
KCES 090135Z 23007KT 05/03 A3026 RMK A01 T00530034  RH  090%=      5-min Rain = 0
KCES 090140Z 23007KT 05/03 A3026 RMK A01 T00520033  RH  090%=      5-min Rain = 0
KCES 090145Z 23006KT 05/03 A3027 RMK A01 T00500032  RH  090%=      5-min Rain = 0
KCES 090150Z 23007KT 05/03 A3026 RMK A01 T00480030  RH  090%=      5-min Rain = 0
KCES 090155Z 23008KT 05/03 A3026 RMK A01 T00450028  RH  090%=      5-min Rain = 0
KCES 090200Z 22006KT 04/03 A3026 RMK A01 T00440029  RH  091%=      5-min Rain = 0
KCES 090205Z 22006KT 04/03 A3026 RMK A01 T00440029  RH  091%=      5-min Rain = 0
KCES 090210Z 23008KT 04/03 A3026 RMK A01 T00420027  RH  091%=      5-min Rain = 0
KCES 090215Z 22007KT 04/03 A3026 RMK A01 T00390025  RH  092%=      5-min Rain = 0
KCES 090220Z 22008KT 04/02 A3026 RMK A01 T00380024  RH  092%=      5-min Rain = 0
KCES 090225Z 22007KT 04/02 A3026 RMK A01 T00350021  RH  092%=      5-min Rain = 0
KCES 090230Z 23005KT 03/02 A3027 RMK A01 T00320019  RH  092%=      5-min Rain = 0
KCES 090235Z 22005KT 03/02 A3027 RMK A01 T00290016  RH  092%=      5-min Rain = 0
KCES 090240Z 21007KT 03/02 A3027 RMK A01 T00280015  RH  093%=      5-min Rain = 0
KCES 090245Z 22007KT 03/02 A3027 RMK A01 T00290017  RH  093%=      5-min Rain = 0
KCES 090250Z 22005KT 03/02 A3027 RMK A01 T00300019  RH  093%=      5-min Rain = 0
KCES 090255Z 22003KT 03/02 A3027 RMK A01 T00270015  RH  093%=      5-min Rain = 0
KCES 090300Z 23002KT 03/01 A3027 RMK A01 T00260014  RH  093%=      5-min Rain = 0
KCES 090305Z 23003KT 03/02 A3027 RMK A01 T00270015  RH  094%=      5-min Rain = 0
KCES 090310Z 23004KT 03/02 A3027 RMK A01 T00300019  RH  094%=      5-min Rain = 0
KCES 090315Z 23003KT 03/02 A3027 RMK A01 T00320021  RH  094%=      5-min Rain = 0
KCES 090320Z 22003KT 03/02 A3027 RMK A01 T00300019  RH  094%=      5-min Rain = 0
KCES 090325Z 22004KT 03/02 A3027 RMK A01 T00280016  RH  093%=      5-min Rain = 0
KCES 090330Z 22004KT 03/01 A3027 RMK A01 T00250013  RH  093%=      5-min Rain = 0
KCES 090335Z 23004KT 03/02 A3027 RMK A01 T00260015  RH  094%=      5-min Rain = 0
KCES 090340Z 23004KT 03/02 A3027 RMK A01 T00270016  RH  094%=      5-min Rain = 0
KCES 090345Z 23005KT 02/01 A3027 RMK A01 T00230012  RH  093%=      5-min Rain = 0
KCES 090350Z 23006KT 02/01 A3027 RMK A01 T00220011  RH  094%=      5-min Rain = 0
KCES 090355Z 24005KT 02/01 A3027 RMK A01 T00210010  RH  094%=      5-min Rain = 0
KCES 090400Z 24005KT 02/01 A3027 RMK A01 T00200010  RH  094%=      5-min Rain = 0
KCES 090405Z 24005KT 02/01 A3027 RMK A01 T00230013  RH  095%=      5-min Rain = 0
KCES 090410Z 24005KT 03/02 A3027 RMK A01 T00290020  RH  095%=      5-min Rain = 0
KCES 090415Z 23005KT 03/02 A3027 RMK A01 T00280018  RH  094%=      5-min Rain = 0
KCES 090420Z 22005KT 02/01 A3027 RMK A01 T00240013  RH  094%=      5-min Rain = 0
KCES 090425Z 21006KT 02/01 A3027 RMK A01 T00240014  RH  094%=      5-min Rain = 0
KCES 090430Z 22006KT 03/02 A3027 RMK A01 T00280018  RH  095%=      5-min Rain = 0
KCES 090435Z 21005KT 03/02 A3027 RMK A01 T00290019  RH  095%=      5-min Rain = 0
KCES 090440Z 21005KT 03/02 A3027 RMK A01 T00300020  RH  095%=      5-min Rain = 0
KCES 090445Z 21005KT 03/02 A3027 RMK A01 T00320022  RH  095%=      5-min Rain = 0
KCES 090450Z 22006KT 04/03 A3026 RMK A01 T00360026  RH  095%=      5-min Rain = 0
KCES 090455Z 21006KT 04/03 A3026 RMK A01 T00380028  RH  095%=      5-min Rain = 0
KCES 090500Z 21006KT 04/03 A3026 RMK A01 T00390028  RH  094%=      5-min Rain = 0
KCES 090505Z 21005KT 04/03 A3026 RMK A01 T00390028  RH  094%=      5-min Rain = 0
KCES 090510Z 22004KT 04/03 A3026 RMK A01 T00380027  RH  094%=      5-min Rain = 0
KCES 090515Z 22004KT 04/02 A3026 RMK A01 T00350023  RH  093%=      5-min Rain = 0
KCES 090520Z 23003KT 03/02 A3026 RMK A01 T00320020  RH  094%=      5-min Rain = 0
KCES 090525Z 25002KT 03/02 A3025 RMK A01 T00330022  RH  094%=      5-min Rain = 0
KCES 090530Z 26001KT 04/03 A3025 RMK A01 T00360026  RH  095%=      5-min Rain = 0
KCES 090535Z 24003KT 04/03 A3025 RMK A01 T00390029  RH  095%=      5-min Rain = 0
KCES 090540Z 24003KT 04/03 A3025 RMK A01 T00410030  RH  095%=      5-min Rain = 0
KCES 090545Z 24004KT 04/03 A3025 RMK A01 T00390028  RH  094%=      5-min Rain = 0
KCES 090550Z 24004KT 04/03 A3025 RMK A01 T00370026  RH  094%=      5-min Rain = 0
KCES 090555Z 25003KT 04/03 A3025 RMK A01 T00380027  RH  094%=      5-min Rain = 0

Page generated in 0.0091 seconds.